Time;durP1;ratioP1;P1;durP2;ratioP2;P2;SDS_P1;SDS_P2;PMS_P1;PMS_P2;Temp;Humidity;BMP_temperature;BMP_pressure;BME280_temperature;BME280_humidity;BME280_pressure;Samples;Min_cycle;Max_cycle;Signal;HPM_P1;HPM_P2
2021/04/27 00:01:22;;;;;;;2.27;1.50;;;;;;;6.45;40.92;98572.97;5125456;27;42000;-74
2021/04/27 00:03:50;;;;;;;3.50;2.20;;;;;;;6.36;41.17;98575.19;5124862;27;40601;-75
2021/04/27 00:06:17;;;;;;;2.43;1.73;;;;;;;6.35;41.12;98581.38;5123799;27;41328;-74
2021/04/27 00:08:44;;;;;;;2.40;2.17;;;;;;;6.31;41.54;98577.19;5124227;27;42640;-75
2021/04/27 00:11:12;;;;;;;2.30;2.00;;;;;;;6.25;41.73;98569.63;5124587;27;42151;-74
2021/04/27 00:13:40;;;;;;;1.63;1.37;;;;;;;6.21;41.63;98568.06;5126205;27;40630;-74
2021/04/27 00:16:08;;;;;;;1.97;1.80;;;;;;;6.12;42.24;98559.72;5122814;27;41564;-74
2021/04/27 00:18:36;;;;;;;4.43;2.00;;;;;;;6.07;41.79;98566.97;5124242;27;42260;-73
2021/04/27 00:21:04;;;;;;;2.47;2.00;;;;;;;5.99;42.57;98557.75;5124051;27;42016;-74
2021/04/27 00:23:31;;;;;;;2.27;1.87;;;;;;;5.97;42.47;98562.25;5123897;27;40638;-73
2021/04/27 00:25:58;;;;;;;2.43;1.60;;;;;;;5.85;42.63;98540.00;5123083;27;41805;-73
2021/04/27 00:28:25;;;;;;;3.07;1.90;;;;;;;5.88;42.73;98553.03;5124901;27;43002;-75
2021/04/27 00:31:01;;;;;;;2.30;1.70;;;;;;;5.85;43.27;98545.25;5124119;27;42144;-74
2021/04/27 00:33:38;;;;;;;2.53;1.80;;;;;;;5.82;42.93;98542.78;5124279;27;39715;-73
2021/04/27 00:36:05;;;;;;;3.17;1.73;;;;;;;5.78;43.04;98543.88;5124768;27;41456;-74
2021/04/27 00:38:33;;;;;;;1.73;1.43;;;;;;;5.74;42.75;98545.78;5124684;27;42900;-74
2021/04/27 00:41:00;;;;;;;2.93;1.87;;;;;;;5.70;42.43;98541.59;5125420;27;42057;-74
2021/04/27 00:43:27;;;;;;;2.87;1.87;;;;;;;5.66;43.09;98539.19;5125227;27;40573;-73
2021/04/27 00:45:55;;;;;;;3.07;1.83;;;;;;;5.65;43.24;98532.25;5124752;27;42378;-74
2021/04/27 00:48:22;;;;;;;1.83;1.70;;;;;;;5.58;43.14;98520.31;5124966;27;43488;-74
2021/04/27 00:50:50;;;;;;;3.07;1.97;;;;;;;5.61;43.33;98525.41;5124463;27;42012;-74
2021/04/27 00:53:18;;;;;;;3.17;1.90;;;;;;;5.60;43.58;98528.97;5110871;27;40438;-74
2021/04/27 00:55:45;;;;;;;2.37;2.17;;;;;;;5.59;43.44;98527.25;5109679;28;40481;-74
2021/04/27 00:58:13;;;;;;;3.03;2.23;;;;;;;5.56;43.83;98522.19;5108966;28;42949;-75
2021/04/27 01:00:43;;;;;;;3.47;2.00;;;;;;;5.56;43.30;98522.19;5111177;27;42104;-74
2021/04/27 01:03:10;;;;;;;4.90;2.47;;;;;;;5.56;43.67;98522.19;5111918;27;39575;-74
2021/04/27 01:05:39;;;;;;;4.93;1.90;;;;;;;5.55;43.70;98523.94;5109277;27;40702;-74
2021/04/27 01:08:16;;;;;;;3.00;1.90;;;;;;;5.53;43.99;98511.81;5092871;28;43104;-74
2021/04/27 01:10:52;;;;;;;2.40;1.80;;;;;;;5.49;44.12;98499.75;5108944;28;42098;-75
2021/04/27 01:13:29;;;;;;;2.87;2.30;;;;;;;5.53;44.16;98517.06;5110241;28;39625;-74
2021/04/27 01:15:58;;;;;;;4.27;1.80;;;;;;;5.48;44.01;98512.03;5110803;27;42496;-74
2021/04/27 01:18:27;;;;;;;2.03;1.83;;;;;;;5.46;43.78;98505.13;5109916;28;42754;-75
2021/04/27 01:20:58;;;;;;;3.00;2.30;;;;;;;5.47;43.93;98510.31;5109571;28;43653;-75
2021/04/27 01:24:10;;;;;;;1.70;1.60;;;;;;;5.48;43.79;98500.66;5109661;28;40744;-75
2021/04/27 01:26:42;;;;;;;2.80;2.00;;;;;;;5.13;43.97;98448.06;5108402;28;42002;-75
2021/04/27 01:29:13;;;;;;;3.07;2.10;;;;;;;5.44;44.07;98499.13;5109254;28;43690;-74
2021/04/27 01:31:41;;;;;;;2.07;1.87;;;;;;;5.35;43.95;98482.88;5109983;28;42624;-72
2021/04/27 01:34:13;;;;;;;2.87;2.03;;;;;;;5.38;44.13;98495.84;5109567;28;39715;-75
2021/04/27 01:36:41;;;;;;;2.80;2.00;;;;;;;5.27;43.86;98476.28;5109619;28;40932;-74
2021/04/27 01:39:09;;;;;;;3.10;1.70;;;;;;;5.36;43.78;98497.69;5111026;27;43200;-73
2021/04/27 01:41:39;;;;;;;3.10;1.70;;;;;;;5.35;44.11;98492.50;5108319;28;42620;-73
2021/04/27 01:44:07;;;;;;;4.13;2.17;;;;;;;5.33;44.20;98489.09;5109684;28;40326;-73
2021/04/27 01:46:35;;;;;;;1.90;1.80;;;;;;;5.30;43.94;98490.13;5110618;27;42198;-74
2021/04/27 01:49:04;;;;;;;2.43;1.70;;;;;;;5.26;43.93;98483.31;5109631;28;42483;-74
2021/04/27 01:51:35;;;;;;;3.20;1.80;;;;;;;5.17;44.46;98468.00;5108515;28;41394;-74
2021/04/27 01:54:22;;;;;;;3.47;2.40;;;;;;;5.20;44.57;98486.19;5109349;28;40414;-74
2021/04/27 01:56:49;;;;;;;5.10;2.20;;;;;;;5.16;44.78;98484.66;5125512;27;41621;-73
2021/04/27 01:59:17;;;;;;;1.60;1.50;;;;;;;5.15;44.63;98475.09;5108725;28;41468;-74
2021/04/27 02:01:46;;;;;;;2.30;1.83;;;;;;;5.12;44.85;98475.22;5108918;28;42775;-74
2021/04/27 02:04:20;;;;;;;2.73;1.93;;;;;;;5.09;44.51;98470.09;5108195;28;39296;-75
2021/04/27 02:07:04;;;;;;;3.00;1.83;;;;;;;5.09;44.52;98469.25;5109112;28;42422;-74
2021/04/27 02:09:32;;;;;;;3.37;1.93;;;;;;;5.03;45.05;98466.00;5109555;27;42658;-74
2021/04/27 02:12:21;;;;;;;5.53;2.33;;;;;;;4.97;45.41;98457.56;5109471;28;42017;-74
2021/04/27 02:14:49;;;;;;;2.40;1.70;;;;;;;4.91;45.12;98447.38;5107599;28;39277;-74
2021/04/27 02:17:28;;;;;;;4.57;1.80;;;;;;;4.94;44.98;98460.34;5110472;27;42030;-74
2021/04/27 02:19:56;;;;;;;2.20;1.80;;;;;;;4.88;45.13;98452.75;5109618;27;42758;-74
2021/04/27 02:22:44;;;;;;;2.20;1.70;;;;;;;4.85;44.88;98455.50;5109019;27;42199;-74
2021/04/27 02:25:37;;;;;;;2.10;1.73;;;;;;;4.75;44.94;98434.09;5106990;28;39064;-74
2021/04/27 02:28:05;;;;;;;4.40;2.57;;;;;;;4.85;45.15;98460.75;5108992;28;41623;-75
2021/04/27 02:30:33;;;;;;;3.07;1.87;;;;;;;4.84;45.11;98454.66;5107551;28;42683;-74
2021/04/27 02:33:00;;;;;;;3.60;1.90;;;;;;;4.83;45.02;98459.97;5108963;28;42659;-74
2021/04/27 02:35:30;;;;;;;4.50;1.80;;;;;;;4.84;45.29;98453.78;5143004;27;39817;-74
2021/04/27 02:38:00;;;;;;;2.50;1.87;;;;;;;4.82;45.01;98458.28;5108194;28;42225;-74
2021/04/27 02:40:39;;;;;;;2.83;2.17;;;;;;;4.81;45.29;98453.97;5109817;27;43423;-74
2021/04/27 02:43:08;;;;;;;4.43;1.87;;;;;;;4.84;45.22;98453.78;5109935;27;41839;-74
2021/04/27 02:45:41;;;;;;;2.40;1.70;;;;;;;4.84;44.99;98454.66;5108070;28;40645;-74
2021/04/27 02:48:25;;;;;;;4.70;2.20;;;;;;;4.83;44.91;98446.84;5110178;27;41813;-73
2021/04/27 02:51:01;;;;;;;3.53;1.70;;;;;;;4.84;44.81;98445.91;5142261;27;43447;-74
2021/04/27 02:53:36;;;;;;;3.30;2.17;;;;;;;4.81;44.66;98446.09;5107533;28;41957;-74
2021/04/27 02:56:03;;;;;;;4.33;2.43;;;;;;;4.73;45.13;98421.97;5108331;28;39969;-74
2021/04/27 02:58:34;;;;;;;3.50;2.27;;;;;;;4.70;45.13;98426.41;5108163;28;40961;-74
2021/04/27 03:01:02;;;;;;;2.23;1.90;;;;;;;4.75;44.73;98444.56;5107471;28;42713;-74
2021/04/27 03:03:30;;;;;;;3.00;1.90;;;;;;;4.74;44.87;98439.41;5109452;27;42749;-74
2021/04/27 03:05:57;;;;;;;5.83;2.20;;;;;;;4.75;44.68;98435.84;5107598;28;40407;-74
2021/04/27 03:08:25;;;;;;;2.67;1.97;;;;;;;4.74;45.11;98436.78;5107814;28;41403;-75
2021/04/27 03:10:52;;;;;;;6.10;1.80;;;;;;;4.72;44.66;98444.72;5108486;27;42520;-74
2021/04/27 03:13:21;;;;;;;3.07;1.93;;;;;;;4.64;44.94;98429.34;5109693;27;42176;-74
2021/04/27 03:15:53;;;;;;;3.23;2.20;;;;;;;4.70;45.31;98441.31;5108285;27;39654;-74
2021/04/27 03:18:20;;;;;;;2.37;2.13;;;;;;;4.65;44.84;98438.91;5107553;28;42661;-74
2021/04/27 03:20:48;;;;;;;4.13;2.10;;;;;;;4.66;45.38;98440.63;5107606;28;43325;-74
2021/04/27 03:23:24;;;;;;;3.20;2.07;;;;;;;4.62;45.22;98436.41;5108184;28;42081;-73
2021/04/27 03:25:52;;;;;;;2.60;2.00;;;;;;;4.61;45.25;98434.72;5107606;28;39516;-74
2021/04/27 03:28:25;;;;;;;3.07;1.80;;;;;;;4.60;45.19;98435.63;5107780;28;41744;-74
2021/04/27 03:31:03;;;;;;;4.80;1.97;;;;;;;4.57;44.78;98441.03;5107615;28;42785;-74
2021/04/27 03:33:31;;;;;;;2.00;1.80;;;;;;;4.53;44.87;98444.69;5106586;27;42959;-74
2021/04/27 03:35:59;;;;;;;4.33;2.10;;;;;;;4.50;45.39;98438.75;5090827;28;39108;-74
2021/04/27 03:38:27;;;;;;;2.60;1.93;;;;;;;4.45;45.52;98433.69;5106485;28;41655;-74
2021/04/27 03:40:55;;;;;;;2.03;1.80;;;;;;;4.43;45.31;98442.56;5107440;28;42770;-74
2021/04/27 03:43:25;;;;;;;3.37;1.70;;;;;;;4.33;45.96;98415.88;5107083;28;42985;-74
2021/04/27 03:45:53;;;;;;;3.33;1.80;;;;;;;4.38;45.70;98440.13;5107145;28;39786;-74
2021/04/27 03:48:22;;;;;;;2.37;1.87;;;;;;;4.37;45.25;98442.81;5109025;27;41542;-74
2021/04/27 03:51:07;;;;;;;2.23;1.83;;;;;;;4.36;45.54;98431.47;5107071;28;43476;-74
2021/04/27 03:53:37;;;;;;;3.57;2.07;;;;;;;4.33;45.23;98439.47;5108152;27;42264;-74
2021/04/27 03:56:08;;;;;;;2.57;2.30;;;;;;;4.31;45.45;98431.72;5107541;28;39571;-74
2021/04/27 03:58:35;;;;;;;2.67;1.87;;;;;;;4.30;45.89;98429.16;5107436;28;41583;-74
2021/04/27 04:01:02;;;;;;;5.07;2.70;;;;;;;4.28;45.81;98425.75;5109039;28;43367;-74
2021/04/27 04:03:30;;;;;;;4.40;1.83;;;;;;;4.28;46.14;98429.22;5110044;28;42106;-75
2021/04/27 04:05:58;;;;;;;2.27;1.97;;;;;;;4.21;46.15;98416.44;5091134;28;39160;-74
2021/04/27 04:08:43;;;;;;;4.47;2.00;;;;;;;4.22;46.71;98421.59;5108777;27;42460;-74
2021/04/27 04:11:12;;;;;;;3.00;2.17;;;;;;;4.22;46.59;98423.38;5107716;28;42696;-74
2021/04/27 04:13:39;;;;;;;2.20;2.00;;;;;;;4.19;46.19;98426.16;5109155;27;42209;-74
2021/04/27 04:16:07;;;;;;;2.33;2.00;;;;;;;4.21;46.20;98435.63;5106680;28;40415;-74
2021/04/27 04:18:35;;;;;;;2.80;2.20;;;;;;;4.20;46.53;98425.25;5106113;28;41642;-74
2021/04/27 04:21:03;;;;;;;3.30;2.50;;;;;;;4.21;46.88;98424.28;5107439;27;42243;-74
2021/04/27 04:23:42;;;;;;;3.53;1.97;;;;;;;4.21;46.60;98421.66;5108694;27;42786;-74
2021/04/27 04:26:10;;;;;;;2.33;2.07;;;;;;;4.22;46.60;98412.88;5107511;27;40626;-74
2021/04/27 04:28:42;;;;;;;2.20;2.00;;;;;;;4.21;47.01;98416.44;5109627;28;42216;-74
2021/04/27 04:31:09;;;;;;;2.43;2.17;;;;;;;4.22;46.78;98418.97;5143724;27;42577;-74
2021/04/27 04:34:08;;;;;;;3.13;2.00;;;;;;;4.22;47.15;98412.88;5111165;27;41869;-74
2021/04/27 04:37:05;;;;;;;3.60;2.30;;;;;;;4.19;47.28;98403.41;5126996;27;40415;-74
2021/04/27 04:39:51;;;;;;;3.87;2.13;;;;;;;4.24;47.28;98416.28;5111538;27;42639;-74
2021/04/27 04:42:37;;;;;;;3.40;1.60;;;;;;;3.99;47.36;98369.34;5111247;27;42861;-74
2021/04/27 04:45:30;;;;;;;2.90;1.90;;;;;;;4.29;46.68;98420.44;5108424;28;42880;-75
2021/04/27 04:48:26;;;;;;;2.70;1.97;;;;;;;4.30;47.14;98421.28;5073132;27;40603;-74
2021/04/27 04:50:57;;;;;;;4.03;2.20;;;;;;;4.31;46.83;98417.75;5110921;28;40661;-74
2021/04/27 04:53:52;;;;;;;3.53;2.23;;;;;;;4.35;47.30;98419.28;5110098;28;42606;-74
2021/04/27 04:56:19;;;;;;;4.00;2.20;;;;;;;4.39;46.87;98418.25;5110172;28;42782;-73
2021/04/27 04:58:47;;;;;;;2.73;2.13;;;;;;;4.45;46.69;98419.75;5110797;27;39941;-74
2021/04/27 05:01:14;;;;;;;5.83;3.20;;;;;;;4.48;46.76;98420.44;5111874;27;41844;-74
2021/04/27 05:03:53;;;;;;;6.50;3.80;;;;;;;4.57;46.88;98424.44;5109298;28;43226;-74
2021/04/27 05:06:59;;;;;;;3.57;2.40;;;;;;;4.68;46.57;98417.78;5089548;28;41878;-74
2021/04/27 05:09:45;;;;;;;5.67;2.20;;;;;;;4.81;46.20;98423.31;5089470;28;39015;-74
2021/04/27 05:12:23;;;;;;;3.03;2.60;;;;;;;4.90;46.47;98416.78;5123539;27;41739;-73
2021/04/27 05:14:53;;;;;;;3.10;2.10;;;;;;;5.09;45.94;98424.63;5089368;28;42124;-75
2021/04/27 05:17:22;;;;;;;3.67;1.83;;;;;;;5.20;45.68;98424.97;5089370;28;42976;-74
2021/04/27 05:19:49;;;;;;;3.60;2.20;;;;;;;5.32;45.73;98430.50;5089912;28;38750;-74
2021/04/27 05:22:21;;;;;;;3.67;2.10;;;;;;;5.48;45.32;98440.25;5089310;28;41383;-74
2021/04/27 05:24:48;;;;;;;3.67;2.00;;;;;;;5.61;45.21;98441.38;5096313;28;43626;-74
2021/04/27 05:27:17;;;;;;;3.10;2.30;;;;;;;5.73;44.88;98438.13;5109705;28;41801;-73
2021/04/27 05:29:44;;;;;;;2.27;1.83;;;;;;;5.83;45.19;98436.75;5111357;28;40746;-75
2021/04/27 05:32:11;;;;;;;4.00;2.10;;;;;;;5.95;44.76;98441.41;5109038;28;42517;-75
2021/04/27 05:34:38;;;;;;;3.40;2.40;;;;;;;6.06;44.90;98439.09;5089063;28;44138;-74
2021/04/27 05:37:06;;;;;;;2.70;1.80;;;;;;;6.15;44.54;98427.28;5090455;28;42523;-73
2021/04/27 05:39:34;;;;;;;4.10;2.03;;;;;;;6.25;44.38;98432.91;5097093;28;40335;-74
2021/04/27 05:42:01;;;;;;;2.47;2.07;;;;;;;6.34;43.98;98435.03;5110729;27;42653;-74
2021/04/27 05:44:28;;;;;;;2.70;1.90;;;;;;;6.37;44.14;98432.25;5110717;27;43266;-74
2021/04/27 05:46:55;;;;;;;3.10;1.93;;;;;;;6.48;43.56;98436.03;5110625;28;41924;-74
2021/04/27 05:49:23;;;;;;;4.37;2.00;;;;;;;6.62;43.45;98437.94;5109749;28;40594;-75
2021/04/27 05:51:51;;;;;;;3.47;2.30;;;;;;;6.79;43.68;98435.25;5109713;28;41575;-74
2021/04/27 05:54:18;;;;;;;3.73;2.13;;;;;;;7.02;43.31;98433.16;5108282;28;43456;-74
2021/04/27 05:56:46;;;;;;;4.27;1.90;;;;;;;7.24;42.89;98444.19;5110083;27;42132;-74
2021/04/27 05:59:14;;;;;;;2.50;2.30;;;;;;;7.42;42.83;98445.78;5104416;27;39851;-73
2021/04/27 06:01:41;;;;;;;4.10;1.77;;;;;;;7.59;42.13;98452.75;5106574;28;41826;-74
2021/04/27 06:04:08;;;;;;;6.50;2.27;;;;;;;7.54;42.09;98417.91;5108000;27;42242;-75
2021/04/27 06:06:36;;;;;;;4.47;2.70;;;;;;;7.86;41.44;98450.31;5106744;28;42960;-72
2021/04/27 06:09:05;;;;;;;3.10;2.23;;;;;;;7.95;40.76;98455.06;5105004;27;39915;-72
2021/04/27 06:11:32;;;;;;;5.07;2.00;;;;;;;8.18;40.57;98457.19;5105821;28;42089;-74
2021/04/27 06:14:01;;;;;;;4.57;2.20;;;;;;;8.49;39.47;98450.13;5107998;28;42211;-73
2021/04/27 06:16:28;;;;;;;4.80;1.90;;;;;;;8.79;39.07;98469.34;5109931;27;41911;-73
2021/04/27 06:18:55;;;;;;;4.27;2.10;;;;;;;8.91;38.72;98463.31;5108718;28;38901;-74
2021/04/27 06:21:22;;;;;;;3.03;2.20;;;;;;;8.94;38.34;98462.28;5109942;27;40787;-73
2021/04/27 06:23:50;;;;;;;3.43;2.03;;;;;;;9.23;38.88;98465.75;5108003;28;42489;-70
2021/04/27 06:26:18;;;;;;;6.77;2.00;;;;;;;9.64;38.01;98468.41;5106770;28;42411;-74
2021/04/27 06:28:46;;;;;;;4.23;2.50;;;;;;;10.09;37.00;98475.09;5108293;28;39968;-73
2021/04/27 06:31:14;;;;;;;4.10;2.17;;;;;;;10.57;36.86;98470.09;5109231;27;41322;-74
2021/04/27 06:33:40;;;;;;;5.33;2.30;;;;;;;11.27;35.73;98475.75;5109573;27;42709;-74
2021/04/27 06:36:08;;;;;;;6.17;2.30;;;;;;;11.95;33.53;98477.91;5107944;28;42143;-74
2021/04/27 06:38:35;;;;;;;2.77;2.10;;;;;;;12.32;33.05;98486.63;5109337;27;40614;-75
2021/04/27 06:41:02;;;;;;;3.67;2.03;;;;;;;12.32;32.19;98487.47;5108309;28;41129;-72
2021/04/27 06:43:29;;;;;;;3.77;2.10;;;;;;;12.32;31.89;98486.63;5109696;27;43213;-74
2021/04/27 06:45:56;;;;;;;5.20;2.40;;;;;;;11.96;31.93;98498.19;5108233;28;41872;-76
2021/04/27 06:48:24;;;;;;;4.00;2.17;;;;;;;11.65;33.06;98465.91;5091959;28;38941;-73
2021/04/27 06:50:52;;;;;;;6.10;4.50;;;;;;;11.76;33.70;98473.09;5107325;27;42322;-71
2021/04/27 06:53:20;;;;;;;2.80;2.27;;;;;;;11.91;33.64;98465.81;5108745;28;42864;-75
2021/04/27 06:55:48;;;;;;;3.80;2.10;;;;;;;12.11;32.96;98483.78;5107650;28;42096;-73
2021/04/27 06:58:16;;;;;;;3.53;2.20;;;;;;;12.32;32.85;98476.84;5108242;28;39766;-74
2021/04/27 07:00:43;;;;;;;2.47;1.80;;;;;;;12.55;32.21;98480.41;5108238;27;41584;-70
2021/04/27 07:03:11;;;;;;;3.53;1.70;;;;;;;12.84;32.00;98470.19;5142159;27;42624;-73
2021/04/27 07:05:41;;;;;;;4.93;2.73;;;;;;;12.99;30.91;98481.41;5107408;28;41356;-75
2021/04/27 07:08:08;;;;;;;5.13;2.20;;;;;;;13.10;31.19;98473.47;5104550;27;40008;-71
2021/04/27 07:10:36;;;;;;;2.50;2.17;;;;;;;13.13;31.08;98471.41;5107235;28;42440;-73
2021/04/27 07:13:03;;;;;;;3.63;2.70;;;;;;;13.45;30.98;98478.69;5108583;27;42742;-72
2021/04/27 07:15:30;;;;;;;4.27;2.50;;;;;;;13.96;29.62;98485.09;5090896;28;41334;-73
2021/04/27 07:17:57;;;;;;;4.03;2.43;;;;;;;15.30;29.29;98479.00;5090355;28;39134;-73
2021/04/27 07:20:25;;;;;;;3.53;2.23;;;;;;;16.26;26.77;98491.72;5107262;28;41736;-72
2021/04/27 07:22:53;;;;;;;3.63;2.50;;;;;;;16.56;26.39;98480.03;5108165;27;42310;-72
2021/04/27 07:25:20;;;;;;;4.87;2.43;;;;;;;16.69;27.38;98480.59;5109421;27;42736;-73
2021/04/27 07:27:47;;;;;;;3.57;2.40;;;;;;;17.09;26.72;98477.66;5107940;27;39679;-73
2021/04/27 07:30:15;;;;;;;2.60;2.10;;;;;;;17.31;26.17;98492.50;5107846;28;41760;-75
2021/04/27 07:32:42;;;;;;;3.53;2.40;;;;;;;17.35;26.66;98477.84;5089863;28;42019;-72
2021/04/27 07:35:11;;;;;;;5.20;2.17;;;;;;;17.52;25.74;98485.13;5108274;28;41967;-74
2021/04/27 07:37:38;;;;;;;4.50;2.90;;;;;;;17.79;25.22;98496.84;5089703;28;40297;-74
2021/04/27 07:40:08;;;;;;;3.83;2.60;;;;;;;18.05;25.71;98489.75;5108895;27;42463;-73
2021/04/27 07:42:36;;;;;;;4.03;2.73;;;;;;;18.97;24.95;98492.91;5106566;28;42815;-74
2021/04/27 07:45:05;;;;;;;3.47;2.53;;;;;;;19.93;23.21;98508.84;5107735;28;41950;-75
2021/04/27 07:47:33;;;;;;;4.23;2.50;;;;;;;20.59;22.29;98505.31;5106500;28;39637;-75
2021/04/27 07:50:00;;;;;;;3.80;2.60;;;;;;;21.53;22.25;98502.81;5109547;28;42567;-76
2021/04/27 07:52:27;;;;;;;5.13;3.70;;;;;;;22.40;20.21;98503.59;5107410;28;42792;-77
2021/04/27 07:54:54;;;;;;;6.13;3.77;;;;;;;23.29;19.51;98509.06;5109469;28;41889;-74
2021/04/27 07:57:22;;;;;;;4.97;2.60;;;;;;;24.08;19.08;98522.03;5108675;27;40448;-74
2021/04/27 07:59:49;;;;;;;3.03;2.43;;;;;;;24.17;17.83;98526.31;5108598;27;42022;-74
2021/04/27 08:02:17;;;;;;;4.67;2.40;;;;;;;23.52;18.33;98514.44;5108836;27;42375;-76
2021/04/27 08:04:45;;;;;;;4.17;2.57;;;;;;;23.39;19.32;98511.50;5110194;28;42192;-74
2021/04/27 08:07:13;;;;;;;3.03;2.73;;;;;;;23.58;18.96;98510.16;5111739;27;39700;-70
2021/04/27 08:09:40;;;;;;;4.00;2.90;;;;;;;23.51;18.80;98514.59;5110565;27;42409;-75
2021/04/27 08:12:07;;;;;;;5.10;2.77;;;;;;;23.43;18.67;98511.97;5110453;28;42603;-74
2021/04/27 08:14:35;;;;;;;3.37;2.70;;;;;;;23.24;18.66;98519.59;5111991;28;42514;-74
2021/04/27 08:17:02;;;;;;;6.93;3.13;;;;;;;23.14;18.86;98512.78;5111577;28;39993;-75
2021/04/27 08:19:29;;;;;;;6.07;3.53;;;;;;;23.26;18.98;98509.44;5112006;28;42072;-74
2021/04/27 08:21:56;;;;;;;3.20;2.90;;;;;;;24.39;18.78;98510.97;5111512;28;43014;-75
2021/04/27 08:24:25;;;;;;;4.87;2.77;;;;;;;25.25;17.44;98510.72;5112275;28;41688;-75
2021/04/27 08:26:52;;;;;;;9.57;5.87;;;;;;;26.40;16.68;98510.09;5111808;27;39705;-77
2021/04/27 08:29:19;;;;;;;5.43;4.00;;;;;;;27.47;15.19;98529.81;5093437;28;40745;-76
2021/04/27 08:31:47;;;;;;;5.83;3.27;;;;;;;28.60;15.64;98522.09;5093273;28;42664;-74
2021/04/27 08:34:14;;;;;;;3.83;2.83;;;;;;;28.79;14.92;98517.63;5111028;28;42857;-72
2021/04/27 08:36:41;;;;;;;4.80;3.23;;;;;;;28.45;15.07;98527.00;5109741;28;40693;-74
2021/04/27 08:39:07;;;;;;;5.90;3.80;;;;;;;28.21;14.89;98524.00;5111619;28;42008;-78
2021/04/27 08:41:37;;;;;;;5.77;3.50;;;;;;;28.77;14.11;98512.34;5109567;28;43724;-75
2021/04/27 08:44:04;;;;;;;3.20;2.90;;;;;;;30.07;14.83;98518.72;5112144;28;42498;-75
2021/04/27 08:46:31;;;;;;;3.80;3.17;;;;;;;31.32;13.62;98524.28;5110212;28;40000;-76
2021/04/27 08:49:00;;;;;;;3.83;3.10;;;;;;;32.17;13.21;98510.00;5110626;28;41866;-76
2021/04/27 08:51:27;;;;;;;5.50;3.30;;;;;;;32.42;12.16;98522.34;5109271;28;43815;-76
2021/04/27 08:53:54;;;;;;;4.97;3.50;;;;;;;32.98;11.26;98528.91;5111550;28;43903;-74
2021/04/27 08:56:21;;;;;;;4.63;3.40;;;;;;;33.10;11.92;98521.44;5110958;28;40332;-75
2021/04/27 08:58:48;;;;;;;4.37;3.60;;;;;;;32.92;12.30;98524.41;5109489;28;42058;-76
2021/04/27 09:01:15;;;;;;;4.63;3.57;;;;;;;33.23;11.81;98524.91;5110891;28;42970;-76
2021/04/27 09:03:43;;;;;;;6.03;3.40;;;;;;;33.47;11.35;98527.25;5110449;28;43047;-77
2021/04/27 09:06:15;;;;;;;5.57;3.50;;;;;;;33.29;12.21;98497.31;5111216;28;40957;-75
2021/04/27 09:08:43;;;;;;;5.50;3.57;;;;;;;32.86;11.78;98500.72;5109655;28;41709;-79
2021/04/27 09:11:28;;;;;;;4.50;3.97;;;;;;;31.71;12.78;98496.19;5110031;27;43376;-76
2021/04/27 09:14:15;;;;;;;5.70;3.63;;;;;;;31.56;13.28;98475.81;5110368;27;41245;-77
2021/04/27 09:16:48;;;;;;;5.50;3.47;;;;;;;31.88;13.17;98481.78;5109790;27;40616;-74
2021/04/27 09:19:32;;;;;;;4.60;4.20;;;;;;;31.96;12.89;98481.38;5110573;27;41375;-74
2021/04/27 09:22:06;;;;;;;5.83;3.70;;;;;;;32.32;12.09;98491.16;5092908;28;41946;-75
2021/04/27 09:24:35;;;;;;;5.00;4.40;;;;;;;32.63;11.71;98489.84;5107986;28;42785;-72
2021/04/27 09:27:03;;;;;;;4.63;4.23;;;;;;;33.45;11.20;98479.16;5110085;27;40341;-72
2021/04/27 09:29:32;;;;;;;4.63;4.18;;;;;;;34.39;11.62;98485.38;5108754;28;42443;-74
2021/04/27 09:32:00;;;;;;;4.60;4.20;;;;;;;34.68;10.35;98488.69;5110607;27;42926;-75
2021/04/27 09:34:29;;;;;;;5.05;4.15;;;;;;;34.78;11.32;98486.06;5107789;28;42752;-72
2021/04/27 09:36:58;;;;;;;5.20;4.70;;;;;;;34.11;10.62;98482.84;5110302;27;40366;-74
2021/04/27 09:39:39;;;;;;;7.83;4.90;;;;;;;33.34;11.01;98480.09;5109968;27;41824;-75
2021/04/27 09:42:10;;;;;;;5.07;4.57;;;;;;;33.46;11.33;98475.34;5109437;28;43232;-75
2021/04/27 09:44:43;;;;;;;5.37;4.30;;;;;;;33.96;11.67;98461.50;5108059;28;42953;-73
2021/04/27 09:47:19;;;;;;;8.13;4.47;;;;;;;34.46;10.63;98475.00;5109313;27;40718;-74
2021/04/27 09:49:59;;;;;;;5.33;4.83;;;;;;;35.11;10.88;98471.22;5091926;28;40905;-75
2021/04/27 09:52:28;;;;;;;5.87;4.83;;;;;;;35.16;10.02;98474.00;5108912;28;42137;-76
2021/04/27 09:55:07;;;;;;;5.43;3.93;;;;;;;35.33;10.85;98451.03;5110521;27;43024;-76
2021/04/27 09:57:36;;;;;;;4.80;4.40;;;;;;;35.68;10.54;98442.94;5109865;27;39969;-77
2021/04/27 10:00:23;;;;;;;7.10;4.80;;;;;;;35.73;10.26;98456.78;5091851;28;43377;-77
2021/04/27 10:02:51;;;;;;;9.53;8.50;;;;;;;34.76;11.18;98441.47;5107979;28;42729;-75
2021/04/27 10:05:19;;;;;;;5.47;4.97;;;;;;;33.41;11.74;98440.41;5108169;28;42662;-75
2021/04/27 10:07:46;;;;;;;5.60;4.97;;;;;;;32.36;11.95;98438.38;5109438;27;40292;-74
2021/04/27 10:10:17;;;;;;;6.53;4.93;;;;;;;32.29;12.32;98439.59;5091324;28;41500;-75
2021/04/27 10:12:46;;;;;;;5.83;5.27;;;;;;;32.24;12.06;98434.84;5107902;28;42670;-74
2021/04/27 10:15:14;;;;;;;6.03;4.67;;;;;;;32.28;13.16;98397.63;5108259;28;42904;-75
2021/04/27 10:17:42;;;;;;;5.63;5.03;;;;;;;32.38;13.15;98407.97;5107958;28;40322;-73
2021/04/27 10:20:13;;;;;;;5.03;4.53;;;;;;;32.44;13.55;98405.06;5108812;28;40845;-74
2021/04/27 10:22:42;;;;;;;8.17;4.80;;;;;;;32.71;12.71;98412.66;5107474;28;42655;-74
2021/04/27 10:25:16;;;;;;;5.53;4.97;;;;;;;32.84;12.59;98409.59;5108174;27;42245;-75
2021/04/27 10:27:43;;;;;;;6.10;5.50;;;;;;;33.02;12.38;98403.84;5108618;27;39668;-74
2021/04/27 10:30:32;;;;;;;8.20;5.70;;;;;;;33.47;11.89;98414.69;5109783;27;41517;-74
2021/04/27 10:33:17;;;;;;;5.90;5.33;;;;;;;34.58;11.45;98406.09;5107844;28;42157;-74
2021/04/27 10:36:04;;;;;;;5.53;5.03;;;;;;;35.57;10.63;98413.69;5107714;28;42217;-76
2021/04/27 10:38:55;;;;;;;6.90;6.00;;;;;;;36.29;10.26;98399.94;5107990;28;39054;-72
2021/04/27 10:41:25;;;;;;;6.00;5.27;;;;;;;36.98;10.65;98393.88;5108109;27;42309;-74
2021/04/27 10:43:55;;;;;;;8.17;5.70;;;;;;;37.06;10.48;98392.53;5109838;27;42913;-74
2021/04/27 10:47:01;;;;;;;5.77;5.23;;;;;;;36.59;10.25;98388.13;5107397;28;42153;-75
2021/04/27 10:49:37;;;;;;;6.33;5.73;;;;;;;36.24;10.30;98382.53;5107260;28;39806;-76
2021/04/27 10:52:07;;;;;;;6.90;5.57;;;;;;;36.09;10.35;98382.50;5109595;27;41758;-74
2021/04/27 10:54:37;;;;;;;7.73;5.07;;;;;;;35.95;10.35;98376.69;5108212;28;42026;-76
2021/04/27 10:57:19;;;;;;;5.90;5.30;;;;;;;35.93;11.14;98367.84;5091424;28;42406;-75
2021/04/27 10:59:58;;;;;;;6.60;5.90;;;;;;;36.33;10.88;98367.13;5106901;28;39966;-75
2021/04/27 11:02:28;;;;;;;5.83;5.03;;;;;;;36.13;10.71;98362.38;5108950;27;41512;-75
2021/04/27 11:04:58;;;;;;;7.73;6.00;;;;;;;35.86;10.51;98362.56;5107412;28;41736;-74
2021/04/27 11:07:34;;;;;;;6.03;5.30;;;;;;;35.52;10.47;98353.06;5108531;27;42920;-75
2021/04/27 11:10:32;;;;;;;5.63;5.03;;;;;;;35.96;10.96;98346.09;5108656;27;39908;-78
2021/04/27 11:13:07;;;;;;;9.27;5.50;;;;;;;36.84;9.76;98351.44;5108666;28;42334;-74
2021/04/27 11:15:36;;;;;;;5.90;5.40;;;;;;;37.35;9.67;98357.66;5109480;28;43611;-77
2021/04/27 11:18:09;;;;;;;6.57;5.70;;;;;;;37.94;9.71;98356.06;5108010;28;42581;-76
2021/04/27 11:20:53;;;;;;;6.17;5.57;;;;;;;38.33;9.03;98356.91;5107512;28;39850;-76
2021/04/27 11:23:51;;;;;;;5.53;4.90;;;;;;;37.98;10.65;98335.81;5107721;28;42095;-76
2021/04/27 11:26:42;;;;;;;6.50;5.90;;;;;;;36.61;10.14;98341.72;5108284;28;43064;-77
2021/04/27 11:29:14;;;;;;;6.10;5.50;;;;;;;35.45;10.68;98333.22;5107988;28;43045;-76
2021/04/27 11:32:09;;;;;;;7.67;6.97;;;;;;;35.67;10.89;98328.34;5106552;28;40914;-79
2021/04/27 11:35:08;;;;;;;6.33;5.40;;;;;;;36.52;10.01;98321.31;5106783;28;41687;-77
2021/04/27 11:37:38;;;;;;;5.93;5.17;;;;;;;36.43;9.91;98316.66;5108143;27;43926;-75
2021/04/27 11:40:22;;;;;;;7.77;5.97;;;;;;;35.93;9.55;98327.34;5107381;28;42508;-76
2021/04/27 11:42:55;;;;;;;6.23;5.43;;;;;;;36.11;10.75;98308.59;5108810;27;39973;-76
2021/04/27 11:45:23;;;;;;;6.20;5.57;;;;;;;36.57;10.63;98302.03;5108610;27;41467;-77
2021/04/27 11:47:56;;;;;;;6.90;5.33;;;;;;;37.27;10.40;98299.41;5107610;28;42730;-75
2021/04/27 11:50:25;;;;;;;6.53;5.43;;;;;;;37.56;10.15;98305.94;5108604;27;42644;-76
2021/04/27 11:52:55;;;;;;;6.23;5.73;;;;;;;38.03;9.55;98288.78;5107183;28;40018;-77
2021/04/27 11:55:30;;;;;;;5.90;5.23;;;;;;;38.84;9.39;98294.75;5108621;28;41966;-76
2021/04/27 11:58:00;;;;;;;6.47;5.17;;;;;;;39.40;9.26;98290.25;5108198;28;42593;-77
2021/04/27 12:00:36;;;;;;;5.23;4.77;;;;;;;39.57;8.51;98291.72;5107097;28;42084;-74